Terminal Aerodrome Forecast
Issued by NWS Jackson, MS

Home | Current Version | Previous Version | Text Only | Print | Product List | Glossary On
Versions: 1 2 3 4 5 6 7 8 9 10 11 12 13
000
FTUS44 KMEG 200835 AAA
TAFTUP
TAF AMD
KTUP 200835Z 2009/2106 00000KT P6SM SCT250
     FM201000 00000KT 2SM BR SCT250
      TEMPO 2010/2013 1/2SM FG
     FM201600 16005KT P6SM BKN250
     FM201800 16007KT P6SM SKC
     FM210000 VRB03KT P6SM FEW250=

USA.gov is the U.S. government's official web portal to all federal, state and local government web resources and services.